Airfield :
LOGIN :

Register | Disclaimer

   EN    FR    IT 

 










Legend :    VFR   Marginal VFR   IFR   Intensive IFR   Very Intensive IFR
Visi :
Ceiling :
>= 8 km
>= 3000ft
5 to 8 km
1000 to 3000 ft
1500m to 5 km
500 to 1000 ft
800 to 1500m
200 to 500 ft
< 800m
< 200 ft
Symbols :   Thunderstorms  Fog  Heavy snow  Heavy precipitations  Wind > 20 kt
SIGMETs :     Misc.  Thunderstorms  Icing  Turbulence  Mountain Waves  Volcanic Ashes






- Airport Elevation : 204 ft
- IATA code : AGF


LFBA - Agen

CURRENT METAR :
  • 162130Z AUTO 27005KT 230V320 9999 FEW041 BKN074 OVC086 07/06 Q1010

EXPIRED METARs :
  • 162100Z AUTO 23010KT 200V260 CAVOK 07/06 Q1009 NOSIG
  • 162030Z AUTO 23010KT CAVOK 07/06 Q1009 NOSIG
  • 162000Z AUTO 23010KT CAVOK 07/06 Q1009 TEMPO 4000 SHRA BKN015TCU
  • 161930Z AUTO 24011KT 9999 FEW010 SCT100 BKN130 07/06 Q1009 TEMPO 4000 SHRA BKN015TCU
  • 161900Z AUTO 23012KT CAVOK 07/06 Q1008 TEMPO 4000 SHRA BKN015TCU

TAF TAF LFBA
Valid from the 16 at 18:00 until the 17 at 03:00 UTC


161700Z 1618/1703 24010KT 9999 BKN020
PROB30
TEMPO 1618/1621 4000 SHRA BKN015TCU
BECMG 1621/1623 VRB03KT
PROB30 1700/1703 0800 FG OVC002



MET'MAP, your aeronautical weather chart ! - Copyright ORBIFLY December 2007 - Disclaimer

ORBIFLY MET'MAP TEAM :

Programming & Development : Alexandra Zaïnal
Concept & Development : Baudouin d'Aumeries
Co-Development & Prog : Marc-Olivier Méhu
Technical & hardware support : Manuel Goepfert

Contact : metmap@orbifly.com




SOURCES & CREDITS :

   NOAA